sensor_id;sensor_type;location;lat;lon;timestamp;temperature;humidity
15707;DHT22;7953;54.302;10.128;2022-12-18T00:01:30;-3.90;99.90
15707;DHT22;7953;54.302;10.128;2022-12-18T00:03:59;-3.90;99.90
15707;DHT22;7953;54.302;10.128;2022-12-18T00:06:27;-3.90;99.90
15707;DHT22;7953;54.302;10.128;2022-12-18T00:08:55;-3.80;99.90
15707;DHT22;7953;54.302;10.128;2022-12-18T00:11:25;-3.80;99.90
15707;DHT22;7953;54.302;10.128;2022-12-18T00:13:53;-3.90;99.90
15707;DHT22;7953;54.302;10.128;2022-12-18T00:16:22;-3.90;99.90
15707;DHT22;7953;54.302;10.128;2022-12-18T00:18:53;-3.90;99.90
15707;DHT22;7953;54.302;10.128;2022-12-18T00:21:20;-4.00;99.90
15707;DHT22;7953;54.302;10.128;2022-12-18T00:23:48;-3.90;99.90
15707;DHT22;7953;54.302;10.128;2022-12-18T00:26:20;-3.90;99.90
15707;DHT22;7953;54.302;10.128;2022-12-18T00:28:49;-4.00;99.90
15707;DHT22;7953;54.302;10.128;2022-12-18T00:31:18;-4.00;99.90
15707;DHT22;7953;54.302;10.128;2022-12-18T00:33:45;-4.00;99.90
15707;DHT22;7953;54.302;10.128;2022-12-18T00:36:15;-4.10;99.90
15707;DHT22;7953;54.302;10.128;2022-12-18T00:38:43;-4.10;99.90
15707;DHT22;7953;54.302;10.128;2022-12-18T00:41:12;-4.10;99.90
15707;DHT22;7953;54.302;10.128;2022-12-18T00:43:39;-4.10;99.90
15707;DHT22;7953;54.302;10.128;2022-12-18T00:46:05;-4.20;99.90
15707;DHT22;7953;54.302;10.128;2022-12-18T00:48:32;-4.20;99.90
15707;DHT22;7953;54.302;10.128;2022-12-18T00:50:59;-4.20;99.90
15707;DHT22;7953;54.302;10.128;2022-12-18T00:53:27;-4.20;99.90
15707;DHT22;7953;54.302;10.128;2022-12-18T00:55:54;-4.20;99.90
15707;DHT22;7953;54.302;10.128;2022-12-18T00:58:21;-4.20;99.90
15707;DHT22;7953;54.302;10.128;2022-12-18T01:00:48;-4.20;99.90
15707;DHT22;7953;54.302;10.128;2022-12-18T01:03:15;-4.20;99.90
15707;DHT22;7953;54.302;10.128;2022-12-18T01:05:42;-4.10;99.90
15707;DHT22;7953;54.302;10.128;2022-12-18T01:08:09;-4.20;99.90
15707;DHT22;7953;54.302;10.128;2022-12-18T01:10:39;-4.20;99.90
15707;DHT22;7953;54.302;10.128;2022-12-18T01:13:06;-4.20;99.90
15707;DHT22;7953;54.302;10.128;2022-12-18T01:15:33;-4.20;99.90
15707;DHT22;7953;54.302;10.128;2022-12-18T01:18:00;-4.20;99.90
15707;DHT22;7953;54.302;10.128;2022-12-18T01:20:27;-4.30;99.90
15707;DHT22;7953;54.302;10.128;2022-12-18T01:22:54;-4.30;99.90
15707;DHT22;7953;54.302;10.128;2022-12-18T01:25:21;-4.20;99.90
15707;DHT22;7953;54.302;10.128;2022-12-18T01:27:49;-4.20;99.90
15707;DHT22;7953;54.302;10.128;2022-12-18T01:30:16;-4.20;99.90
15707;DHT22;7953;54.302;10.128;2022-12-18T01:32:43;-4.30;99.90
15707;DHT22;7953;54.302;10.128;2022-12-18T01:35:10;-4.30;99.90
15707;DHT22;7953;54.302;10.128;2022-12-18T01:37:36;-4.40;99.90
15707;DHT22;7953;54.302;10.128;2022-12-18T01:40:04;-4.30;99.90
15707;DHT22;7953;54.302;10.128;2022-12-18T01:42:31;-4.30;99.90
15707;DHT22;7953;54.302;10.128;2022-12-18T01:45:05;-4.30;99.90
15707;DHT22;7953;54.302;10.128;2022-12-18T01:47:36;-4.30;99.90
15707;DHT22;7953;54.302;10.128;2022-12-18T01:50:07;-4.40;99.90
15707;DHT22;7953;54.302;10.128;2022-12-18T01:52:35;-4.40;99.90
15707;DHT22;7953;54.302;10.128;2022-12-18T01:55:05;-4.40;99.90
15707;DHT22;7953;54.302;10.128;2022-12-18T01:57:32;-4.40;99.90
15707;DHT22;7953;54.302;10.128;2022-12-18T02:00:05;-4.40;99.90
15707;DHT22;7953;54.302;10.128;2022-12-18T02:02:33;-4.40;99.90
15707;DHT22;7953;54.302;10.128;2022-12-18T02:05:00;-4.40;99.90
15707;DHT22;7953;54.302;10.128;2022-12-18T02:07:36;-4.40;99.90
15707;DHT22;7953;54.302;10.128;2022-12-18T02:10:09;-4.40;99.90
15707;DHT22;7953;54.302;10.128;2022-12-18T02:12:43;-4.40;99.90
15707;DHT22;7953;54.302;10.128;2022-12-18T02:15:16;-4.30;99.90
15707;DHT22;7953;54.302;10.128;2022-12-18T02:17:50;-4.30;99.90
15707;DHT22;7953;54.302;10.128;2022-12-18T02:20:22;-4.30;99.90
15707;DHT22;7953;54.302;10.128;2022-12-18T02:23:03;-4.30;99.90
15707;DHT22;7953;54.302;10.128;2022-12-18T02:25:40;-4.30;99.90
15707;DHT22;7953;54.302;10.128;2022-12-18T02:28:13;-4.20;99.90
15707;DHT22;7953;54.302;10.128;2022-12-18T02:30:42;-4.30;99.90
15707;DHT22;7953;54.302;10.128;2022-12-18T02:33:11;-4.30;99.90
15707;DHT22;7953;54.302;10.128;2022-12-18T02:35:40;-4.30;99.90
15707;DHT22;7953;54.302;10.128;2022-12-18T02:38:08;-4.30;99.90
15707;DHT22;7953;54.302;10.128;2022-12-18T02:40:36;-4.30;99.90
15707;DHT22;7953;54.302;10.128;2022-12-18T02:43:07;-4.30;99.90
15707;DHT22;7953;54.302;10.128;2022-12-18T02:45:45;-4.30;99.90
15707;DHT22;7953;54.302;10.128;2022-12-18T02:48:12;-4.40;99.90
15707;DHT22;7953;54.302;10.128;2022-12-18T02:50:45;-4.40;99.90
15707;DHT22;7953;54.302;10.128;2022-12-18T02:53:23;-4.40;99.90
15707;DHT22;7953;54.302;10.128;2022-12-18T02:55:58;-4.40;99.90
15707;DHT22;7953;54.302;10.128;2022-12-18T02:58:33;-4.30;99.90
15707;DHT22;7953;54.302;10.128;2022-12-18T03:01:09;-4.30;99.90
15707;DHT22;7953;54.302;10.128;2022-12-18T03:03:40;-4.40;99.90
15707;DHT22;7953;54.302;10.128;2022-12-18T03:06:17;-4.40;99.90
15707;DHT22;7953;54.302;10.128;2022-12-18T03:08:48;-4.40;99.90
15707;DHT22;7953;54.302;10.128;2022-12-18T03:11:17;-4.40;99.90
15707;DHT22;7953;54.302;10.128;2022-12-18T03:14:07;-4.40;99.90
15707;DHT22;7953;54.302;10.128;2022-12-18T03:16:36;-4.40;99.90
15707;DHT22;7953;54.302;10.128;2022-12-18T03:19:06;-4.40;99.90
15707;DHT22;7953;54.302;10.128;2022-12-18T03:21:43;-4.40;99.90
15707;DHT22;7953;54.302;10.128;2022-12-18T03:24:12;-4.40;99.90
15707;DHT22;7953;54.302;10.128;2022-12-18T03:26:44;-4.50;99.90
15707;DHT22;7953;54.302;10.128;2022-12-18T03:29:16;-4.50;99.90
15707;DHT22;7953;54.302;10.128;2022-12-18T03:31:48;-4.50;99.90
15707;DHT22;7953;54.302;10.128;2022-12-18T03:34:19;-4.50;99.90
15707;DHT22;7953;54.302;10.128;2022-12-18T03:36:48;-4.50;99.90
15707;DHT22;7953;54.302;10.128;2022-12-18T03:39:15;-4.50;99.90
15707;DHT22;7953;54.302;10.128;2022-12-18T03:41:44;-4.50;99.90
15707;DHT22;7953;54.302;10.128;2022-12-18T03:44:16;-4.50;99.90
15707;DHT22;7953;54.302;10.128;2022-12-18T03:46:53;-4.50;99.90
15707;DHT22;7953;54.302;10.128;2022-12-18T03:49:25;-4.50;99.90
15707;DHT22;7953;54.302;10.128;2022-12-18T03:51:58;-4.50;99.90
15707;DHT22;7953;54.302;10.128;2022-12-18T03:54:28;-4.50;99.90
15707;DHT22;7953;54.302;10.128;2022-12-18T03:56:59;-4.40;99.90
15707;DHT22;7953;54.302;10.128;2022-12-18T03:59:28;-4.50;99.90
15707;DHT22;7953;54.302;10.128;2022-12-18T04:01:59;-4.50;99.90
15707;DHT22;7953;54.302;10.128;2022-12-18T04:04:27;-4.40;99.90
15707;DHT22;7953;54.302;10.128;2022-12-18T04:06:55;-4.40;99.90
15707;DHT22;7953;54.302;10.128;2022-12-18T04:09:23;-4.40;99.90
15707;DHT22;7953;54.302;10.128;2022-12-18T04:11:51;-4.50;99.90
15707;DHT22;7953;54.302;10.128;2022-12-18T04:14:18;-4.50;99.90
15707;DHT22;7953;54.302;10.128;2022-12-18T04:16:45;-4.40;99.90
15707;DHT22;7953;54.302;10.128;2022-12-18T04:19:13;-4.50;99.90
15707;DHT22;7953;54.302;10.128;2022-12-18T04:21:40;-4.50;99.90
15707;DHT22;7953;54.302;10.128;2022-12-18T04:24:07;-4.50;99.90
15707;DHT22;7953;54.302;10.128;2022-12-18T04:26:34;-4.50;99.90
15707;DHT22;7953;54.302;10.128;2022-12-18T04:29:01;-4.50;99.90
15707;DHT22;7953;54.302;10.128;2022-12-18T04:31:28;-4.50;99.90
15707;DHT22;7953;54.302;10.128;2022-12-18T04:33:55;-4.50;99.90
15707;DHT22;7953;54.302;10.128;2022-12-18T04:36:23;-4.50;99.90
15707;DHT22;7953;54.302;10.128;2022-12-18T04:38:54;-4.50;99.90
15707;DHT22;7953;54.302;10.128;2022-12-18T04:41:21;-4.50;99.90
15707;DHT22;7953;54.302;10.128;2022-12-18T04:43:48;-4.50;99.90
15707;DHT22;7953;54.302;10.128;2022-12-18T04:46:14;-4.50;99.90
15707;DHT22;7953;54.302;10.128;2022-12-18T04:48:41;-4.60;99.90
15707;DHT22;7953;54.302;10.128;2022-12-18T04:51:08;-4.60;99.90
15707;DHT22;7953;54.302;10.128;2022-12-18T04:53:36;-4.60;99.90
15707;DHT22;7953;54.302;10.128;2022-12-18T04:56:05;-4.60;99.90
15707;DHT22;7953;54.302;10.128;2022-12-18T04:58:32;-4.60;99.90
15707;DHT22;7953;54.302;10.128;2022-12-18T05:00:59;-4.60;99.90
15707;DHT22;7953;54.302;10.128;2022-12-18T05:03:25;-4.60;99.90
15707;DHT22;7953;54.302;10.128;2022-12-18T05:05:52;-4.70;99.90
15707;DHT22;7953;54.302;10.128;2022-12-18T05:08:19;-4.70;99.90
15707;DHT22;7953;54.302;10.128;2022-12-18T05:10:48;-4.70;99.90
15707;DHT22;7953;54.302;10.128;2022-12-18T05:13:14;-4.70;99.90
15707;DHT22;7953;54.302;10.128;2022-12-18T05:15:41;-4.70;99.90
15707;DHT22;7953;54.302;10.128;2022-12-18T05:18:08;-4.80;99.90
15707;DHT22;7953;54.302;10.128;2022-12-18T05:20:35;-4.80;99.90
15707;DHT22;7953;54.302;10.128;2022-12-18T05:23:02;-4.80;99.90
15707;DHT22;7953;54.302;10.128;2022-12-18T05:25:29;-4.80;99.90
15707;DHT22;7953;54.302;10.128;2022-12-18T05:27:57;-4.80;99.90
15707;DHT22;7953;54.302;10.128;2022-12-18T05:30:24;-4.80;99.90
15707;DHT22;7953;54.302;10.128;2022-12-18T05:32:51;-4.90;99.90
15707;DHT22;7953;54.302;10.128;2022-12-18T05:35:18;-4.90;99.90
15707;DHT22;7953;54.302;10.128;2022-12-18T05:37:45;-4.90;99.90
15707;DHT22;7953;54.302;10.128;2022-12-18T05:40:12;-5.00;99.90
15707;DHT22;7953;54.302;10.128;2022-12-18T05:42:39;-5.00;99.90
15707;DHT22;7953;54.302;10.128;2022-12-18T05:45:08;-5.00;99.90
15707;DHT22;7953;54.302;10.128;2022-12-18T05:47:35;-5.00;99.90
15707;DHT22;7953;54.302;10.128;2022-12-18T05:50:03;-5.00;99.90
15707;DHT22;7953;54.302;10.128;2022-12-18T05:52:30;-5.10;99.90
15707;DHT22;7953;54.302;10.128;2022-12-18T05:54:57;-5.10;99.90
15707;DHT22;7953;54.302;10.128;2022-12-18T05:57:24;-5.10;99.90
15707;DHT22;7953;54.302;10.128;2022-12-18T05:59:51;-5.10;99.90
15707;DHT22;7953;54.302;10.128;2022-12-18T06:02:21;-5.10;99.90
15707;DHT22;7953;54.302;10.128;2022-12-18T06:04:48;-5.20;99.90
15707;DHT22;7953;54.302;10.128;2022-12-18T06:07:14;-5.20;99.90
15707;DHT22;7953;54.302;10.128;2022-12-18T06:09:41;-5.20;99.90
15707;DHT22;7953;54.302;10.128;2022-12-18T06:12:08;-5.20;99.90
15707;DHT22;7953;54.302;10.128;2022-12-18T06:14:36;-5.20;99.90
15707;DHT22;7953;54.302;10.128;2022-12-18T06:17:03;-5.20;99.90
15707;DHT22;7953;54.302;10.128;2022-12-18T06:19:31;-5.20;99.90
15707;DHT22;7953;54.302;10.128;2022-12-18T06:21:58;-5.20;99.90
15707;DHT22;7953;54.302;10.128;2022-12-18T06:24:25;-5.30;99.90
15707;DHT22;7953;54.302;10.128;2022-12-18T06:26:52;-5.30;99.90
15707;DHT22;7953;54.302;10.128;2022-12-18T06:29:18;-5.30;99.90
15707;DHT22;7953;54.302;10.128;2022-12-18T06:31:45;-5.40;99.90
15707;DHT22;7953;54.302;10.128;2022-12-18T06:34:12;-5.30;99.90
15707;DHT22;7953;54.302;10.128;2022-12-18T06:36:40;-5.30;99.90
15707;DHT22;7953;54.302;10.128;2022-12-18T06:39:07;-5.40;99.90
15707;DHT22;7953;54.302;10.128;2022-12-18T06:41:34;-5.40;99.90
15707;DHT22;7953;54.302;10.128;2022-12-18T06:44:03;-5.50;99.90
15707;DHT22;7953;54.302;10.128;2022-12-18T06:46:30;-5.50;99.90
15707;DHT22;7953;54.302;10.128;2022-12-18T06:48:57;-5.50;99.90
15707;DHT22;7953;54.302;10.128;2022-12-18T06:51:25;-5.60;99.90
15707;DHT22;7953;54.302;10.128;2022-12-18T06:53:53;-5.60;99.90
15707;DHT22;7953;54.302;10.128;2022-12-18T06:56:20;-5.50;99.90
15707;DHT22;7953;54.302;10.128;2022-12-18T06:58:47;-5.60;99.90
15707;DHT22;7953;54.302;10.128;2022-12-18T07:01:14;-5.60;99.90
15707;DHT22;7953;54.302;10.128;2022-12-18T07:03:41;-5.70;99.90
15707;DHT22;7953;54.302;10.128;2022-12-18T07:06:13;-5.80;99.90
15707;DHT22;7953;54.302;10.128;2022-12-18T07:08:41;-5.80;99.90
15707;DHT22;7953;54.302;10.128;2022-12-18T07:11:09;-5.80;99.90
15707;DHT22;7953;54.302;10.128;2022-12-18T07:13:36;-5.80;99.90
15707;DHT22;7953;54.302;10.128;2022-12-18T07:16:08;-5.90;99.90
15707;DHT22;7953;54.302;10.128;2022-12-18T07:18:35;-5.90;99.90
15707;DHT22;7953;54.302;10.128;2022-12-18T07:21:03;-5.90;99.90
15707;DHT22;7953;54.302;10.128;2022-12-18T07:23:32;-5.90;99.90
15707;DHT22;7953;54.302;10.128;2022-12-18T07:26:01;-5.90;99.90
15707;DHT22;7953;54.302;10.128;2022-12-18T07:28:30;-6.00;99.90
15707;DHT22;7953;54.302;10.128;2022-12-18T07:30:57;-5.90;99.90
15707;DHT22;7953;54.302;10.128;2022-12-18T07:33:24;-6.00;99.90
15707;DHT22;7953;54.302;10.128;2022-12-18T07:35:51;-6.00;99.90
15707;DHT22;7953;54.302;10.128;2022-12-18T07:38:18;-6.00;99.90
15707;DHT22;7953;54.302;10.128;2022-12-18T07:40:45;-6.00;99.90
15707;DHT22;7953;54.302;10.128;2022-12-18T07:43:12;-6.00;99.90
15707;DHT22;7953;54.302;10.128;2022-12-18T07:45:40;-6.10;99.90
15707;DHT22;7953;54.302;10.128;2022-12-18T07:48:07;-6.00;99.90
15707;DHT22;7953;54.302;10.128;2022-12-18T07:50:33;-6.10;99.90
15707;DHT22;7953;54.302;10.128;2022-12-18T07:53:00;-6.00;99.90
15707;DHT22;7953;54.302;10.128;2022-12-18T07:55:29;-6.00;99.90
15707;DHT22;7953;54.302;10.128;2022-12-18T07:57:56;-6.00;99.90
15707;DHT22;7953;54.302;10.128;2022-12-18T08:00:23;-6.00;99.90
15707;DHT22;7953;54.302;10.128;2022-12-18T08:02:51;-5.90;99.90
15707;DHT22;7953;54.302;10.128;2022-12-18T08:05:18;-6.00;99.90
15707;DHT22;7953;54.302;10.128;2022-12-18T08:07:46;-6.00;99.90
15707;DHT22;7953;54.302;10.128;2022-12-18T08:10:13;-6.00;99.90
15707;DHT22;7953;54.302;10.128;2022-12-18T08:12:40;-6.10;99.90
15707;DHT22;7953;54.302;10.128;2022-12-18T08:15:07;-6.00;99.90
15707;DHT22;7953;54.302;10.128;2022-12-18T08:17:34;-6.00;99.90
15707;DHT22;7953;54.302;10.128;2022-12-18T08:20:03;-6.00;99.90
15707;DHT22;7953;54.302;10.128;2022-12-18T08:22:30;-6.00;99.90
15707;DHT22;7953;54.302;10.128;2022-12-18T08:24:57;-6.00;99.90
15707;DHT22;7953;54.302;10.128;2022-12-18T08:27:24;-5.90;99.90
15707;DHT22;7953;54.302;10.128;2022-12-18T08:29:51;-5.90;99.90
15707;DHT22;7953;54.302;10.128;2022-12-18T08:32:18;-5.90;99.90
15707;DHT22;7953;54.302;10.128;2022-12-18T08:34:45;-5.90;99.90
15707;DHT22;7953;54.302;10.128;2022-12-18T08:37:13;-5.90;99.90
15707;DHT22;7953;54.302;10.128;2022-12-18T08:39:40;-5.90;99.90
15707;DHT22;7953;54.302;10.128;2022-12-18T08:42:07;-5.90;99.90
15707;DHT22;7953;54.302;10.128;2022-12-18T08:44:51;-5.80;99.90
15707;DHT22;7953;54.302;10.128;2022-12-18T08:47:18;-5.80;99.90
15707;DHT22;7953;54.302;10.128;2022-12-18T08:49:45;-5.80;99.90
15707;DHT22;7953;54.302;10.128;2022-12-18T08:52:15;-5.70;99.90
15707;DHT22;7953;54.302;10.128;2022-12-18T08:54:41;-5.70;99.90
15707;DHT22;7953;54.302;10.128;2022-12-18T08:57:08;-5.70;99.90
15707;DHT22;7953;54.302;10.128;2022-12-18T08:59:35;-5.70;99.90
15707;DHT22;7953;54.302;10.128;2022-12-18T09:02:02;-5.70;99.90
15707;DHT22;7953;54.302;10.128;2022-12-18T09:04:29;-5.70;99.90
15707;DHT22;7953;54.302;10.128;2022-12-18T09:06:56;-5.70;99.90
15707;DHT22;7953;54.302;10.128;2022-12-18T09:09:24;-5.60;99.90
15707;DHT22;7953;54.302;10.128;2022-12-18T09:11:51;-5.50;99.90
15707;DHT22;7953;54.302;10.128;2022-12-18T09:14:17;-5.40;99.90
15707;DHT22;7953;54.302;10.128;2022-12-18T09:16:44;-5.40;99.90
15707;DHT22;7953;54.302;10.128;2022-12-18T09:19:11;-5.30;99.90
15707;DHT22;7953;54.302;10.128;2022-12-18T09:21:38;-5.30;99.90
15707;DHT22;7953;54.302;10.128;2022-12-18T09:24:06;-5.30;99.90
15707;DHT22;7953;54.302;10.128;2022-12-18T09:26:34;-5.40;99.90
15707;DHT22;7953;54.302;10.128;2022-12-18T09:29:02;-5.40;99.90
15707;DHT22;7953;54.302;10.128;2022-12-18T09:31:29;-5.50;99.90
15707;DHT22;7953;54.302;10.128;2022-12-18T09:33:56;-5.50;99.90
15707;DHT22;7953;54.302;10.128;2022-12-18T09:36:22;-5.50;99.90
15707;DHT22;7953;54.302;10.128;2022-12-18T09:38:49;-5.50;99.90
15707;DHT22;7953;54.302;10.128;2022-12-18T09:41:31;-5.50;99.90
15707;DHT22;7953;54.302;10.128;2022-12-18T09:44:03;-5.50;99.90
15707;DHT22;7953;54.302;10.128;2022-12-18T09:46:33;-5.50;99.90
15707;DHT22;7953;54.302;10.128;2022-12-18T09:49:05;-5.40;99.90
15707;DHT22;7953;54.302;10.128;2022-12-18T09:51:35;-5.30;99.90
15707;DHT22;7953;54.302;10.128;2022-12-18T09:54:05;-5.30;99.90
15707;DHT22;7953;54.302;10.128;2022-12-18T09:56:36;-5.20;99.90
15707;DHT22;7953;54.302;10.128;2022-12-18T09:59:17;-5.20;99.90
15707;DHT22;7953;54.302;10.128;2022-12-18T10:01:45;-5.10;99.90
15707;DHT22;7953;54.302;10.128;2022-12-18T10:04:11;-5.00;99.90
15707;DHT22;7953;54.302;10.128;2022-12-18T10:06:44;-5.00;99.90
15707;DHT22;7953;54.302;10.128;2022-12-18T10:09:19;-4.90;99.90
15707;DHT22;7953;54.302;10.128;2022-12-18T10:11:56;-4.90;99.90
15707;DHT22;7953;54.302;10.128;2022-12-18T10:14:30;-4.80;99.90
15707;DHT22;7953;54.302;10.128;2022-12-18T10:17:05;-4.70;99.90
15707;DHT22;7953;54.302;10.128;2022-12-18T10:19:40;-4.70;99.90
15707;DHT22;7953;54.302;10.128;2022-12-18T10:22:22;-4.60;99.90
15707;DHT22;7953;54.302;10.128;2022-12-18T10:24:55;-4.50;99.90
15707;DHT22;7953;54.302;10.128;2022-12-18T10:27:25;-4.50;99.90
15707;DHT22;7953;54.302;10.128;2022-12-18T10:29:54;-4.50;99.90
15707;DHT22;7953;54.302;10.128;2022-12-18T10:32:22;-4.40;99.90
15707;DHT22;7953;54.302;10.128;2022-12-18T10:34:52;-4.30;99.90
15707;DHT22;7953;54.302;10.128;2022-12-18T10:37:22;-4.20;99.90
15707;DHT22;7953;54.302;10.128;2022-12-18T10:40:08;-4.20;99.90
15707;DHT22;7953;54.302;10.128;2022-12-18T10:42:35;-4.10;99.90
15707;DHT22;7953;54.302;10.128;2022-12-18T10:45:09;-4.00;99.90
15707;DHT22;7953;54.302;10.128;2022-12-18T10:47:42;-4.00;99.90
15707;DHT22;7953;54.302;10.128;2022-12-18T10:50:18;-3.90;99.90
15707;DHT22;7953;54.302;10.128;2022-12-18T10:52:53;-3.80;99.90
15707;DHT22;7953;54.302;10.128;2022-12-18T10:55:24;-3.80;99.90
15707;DHT22;7953;54.302;10.128;2022-12-18T10:57:54;-3.80;99.90
15707;DHT22;7953;54.302;10.128;2022-12-18T11:00:25;-3.80;99.90
15707;DHT22;7953;54.302;10.128;2022-12-18T11:02:53;-3.80;99.90
15707;DHT22;7953;54.302;10.128;2022-12-18T11:05:28;-3.80;99.90
15707;DHT22;7953;54.302;10.128;2022-12-18T11:07:56;-3.70;99.90
15707;DHT22;7953;54.302;10.128;2022-12-18T11:10:28;-3.70;99.90
15707;DHT22;7953;54.302;10.128;2022-12-18T11:12:55;-3.60;99.90
15707;DHT22;7953;54.302;10.128;2022-12-18T11:15:27;-3.70;99.90
15707;DHT22;7953;54.302;10.128;2022-12-18T11:17:56;-3.70;99.90
15707;DHT22;7953;54.302;10.128;2022-12-18T11:20:31;-3.70;99.90
15707;DHT22;7953;54.302;10.128;2022-12-18T11:22:59;-3.70;99.90
15707;DHT22;7953;54.302;10.128;2022-12-18T11:25:28;-3.60;99.90
15707;DHT22;7953;54.302;10.128;2022-12-18T11:27:56;-3.50;99.90
15707;DHT22;7953;54.302;10.128;2022-12-18T11:30:27;-3.50;99.90
15707;DHT22;7953;54.302;10.128;2022-12-18T11:32:58;-3.50;99.90
15707;DHT22;7953;54.302;10.128;2022-12-18T11:35:38;-3.50;99.90
15707;DHT22;7953;54.302;10.128;2022-12-18T11:38:12;-3.50;99.90
15707;DHT22;7953;54.302;10.128;2022-12-18T11:40:44;-3.50;99.90
15707;DHT22;7953;54.302;10.128;2022-12-18T11:43:16;-3.50;99.90
15707;DHT22;7953;54.302;10.128;2022-12-18T11:45:49;-3.50;99.90
15707;DHT22;7953;54.302;10.128;2022-12-18T11:48:21;-3.50;99.90
15707;DHT22;7953;54.302;10.128;2022-12-18T11:50:50;-3.40;99.90
15707;DHT22;7953;54.302;10.128;2022-12-18T11:53:18;-3.40;99.90
15707;DHT22;7953;54.302;10.128;2022-12-18T11:55:52;-3.40;99.90
15707;DHT22;7953;54.302;10.128;2022-12-18T11:58:31;-3.40;99.90
15707;DHT22;7953;54.302;10.128;2022-12-18T12:01:07;-3.40;99.90
15707;DHT22;7953;54.302;10.128;2022-12-18T12:03:53;-3.30;99.90
15707;DHT22;7953;54.302;10.128;2022-12-18T12:06:25;-3.30;99.90
15707;DHT22;7953;54.302;10.128;2022-12-18T12:09:02;-3.20;99.90
15707;DHT22;7953;54.302;10.128;2022-12-18T12:11:41;-3.20;99.90
15707;DHT22;7953;54.302;10.128;2022-12-18T12:14:23;-3.20;99.90
15707;DHT22;7953;54.302;10.128;2022-12-18T12:17:00;-3.20;99.90
15707;DHT22;7953;54.302;10.128;2022-12-18T12:19:38;-3.20;99.90
15707;DHT22;7953;54.302;10.128;2022-12-18T12:22:13;-3.20;99.90
15707;DHT22;7953;54.302;10.128;2022-12-18T12:24:53;-3.10;99.90
15707;DHT22;7953;54.302;10.128;2022-12-18T12:27:29;-3.10;99.90
15707;DHT22;7953;54.302;10.128;2022-12-18T12:30:03;-3.10;99.90
15707;DHT22;7953;54.302;10.128;2022-12-18T12:32:54;-3.10;99.90
15707;DHT22;7953;54.302;10.128;2022-12-18T12:35:32;-3.20;99.90
15707;DHT22;7953;54.302;10.128;2022-12-18T12:38:08;-3.20;99.90
15707;DHT22;7953;54.302;10.128;2022-12-18T12:40:41;-3.20;99.90
15707;DHT22;7953;54.302;10.128;2022-12-18T12:43:20;-3.10;99.90
15707;DHT22;7953;54.302;10.128;2022-12-18T12:45:49;-3.10;99.90
15707;DHT22;7953;54.302;10.128;2022-12-18T12:48:28;-3.00;99.90
15707;DHT22;7953;54.302;10.128;2022-12-18T12:50:59;-3.00;99.90
15707;DHT22;7953;54.302;10.128;2022-12-18T12:53:32;-3.00;99.90
15707;DHT22;7953;54.302;10.128;2022-12-18T12:56:01;-3.10;99.90
15707;DHT22;7953;54.302;10.128;2022-12-18T12:58:36;-3.00;99.90
15707;DHT22;7953;54.302;10.128;2022-12-18T13:01:12;-3.00;99.90
15707;DHT22;7953;54.302;10.128;2022-12-18T13:03:49;-3.00;99.90
15707;DHT22;7953;54.302;10.128;2022-12-18T13:06:23;-3.00;99.90
15707;DHT22;7953;54.302;10.128;2022-12-18T13:08:55;-2.90;99.90
15707;DHT22;7953;54.302;10.128;2022-12-18T13:11:37;-2.90;99.90
15707;DHT22;7953;54.302;10.128;2022-12-18T13:14:24;-3.00;99.90
15707;DHT22;7953;54.302;10.128;2022-12-18T13:17:24;-3.00;99.90
15707;DHT22;7953;54.302;10.128;2022-12-18T13:20:06;-3.00;99.90
15707;DHT22;7953;54.302;10.128;2022-12-18T13:22:36;-3.00;99.90
15707;DHT22;7953;54.302;10.128;2022-12-18T13:27:55;-3.10;99.90
15707;DHT22;7953;54.302;10.128;2022-12-18T13:30:49;-3.20;99.90
15707;DHT22;7953;54.302;10.128;2022-12-18T13:33:49;-3.20;99.90
15707;DHT22;7953;54.302;10.128;2022-12-18T13:36:32;-3.20;99.90
15707;DHT22;7953;54.302;10.128;2022-12-18T13:39:21;-3.20;99.90
15707;DHT22;7953;54.302;10.128;2022-12-18T13:41:50;-3.20;99.90
15707;DHT22;7953;54.302;10.128;2022-12-18T13:44:25;-3.30;99.90
15707;DHT22;7953;54.302;10.128;2022-12-18T13:46:53;-3.30;99.90
15707;DHT22;7953;54.302;10.128;2022-12-18T13:49:22;-3.30;99.90
15707;DHT22;7953;54.302;10.128;2022-12-18T13:51:52;-3.30;99.90
15707;DHT22;7953;54.302;10.128;2022-12-18T13:54:24;-3.30;99.90
15707;DHT22;7953;54.302;10.128;2022-12-18T13:56:53;-3.30;99.90
15707;DHT22;7953;54.302;10.128;2022-12-18T13:59:21;-3.40;99.90
15707;DHT22;7953;54.302;10.128;2022-12-18T14:01:52;-3.40;99.90
15707;DHT22;7953;54.302;10.128;2022-12-18T14:04:25;-3.40;99.90
15707;DHT22;7953;54.302;10.128;2022-12-18T14:06:57;-3.50;99.90
15707;DHT22;7953;54.302;10.128;2022-12-18T14:09:27;-3.50;99.90
15707;DHT22;7953;54.302;10.128;2022-12-18T14:11:55;-3.50;99.90
15707;DHT22;7953;54.302;10.128;2022-12-18T14:14:46;-3.60;99.90
15707;DHT22;7953;54.302;10.128;2022-12-18T14:17:14;-3.60;99.90
15707;DHT22;7953;54.302;10.128;2022-12-18T14:19:47;-3.60;99.90
15707;DHT22;7953;54.302;10.128;2022-12-18T14:22:17;-3.70;99.90
15707;DHT22;7953;54.302;10.128;2022-12-18T14:24:45;-3.70;99.90
15707;DHT22;7953;54.302;10.128;2022-12-18T14:27:21;-3.80;99.90
15707;DHT22;7953;54.302;10.128;2022-12-18T14:29:48;-3.80;99.90
15707;DHT22;7953;54.302;10.128;2022-12-18T14:32:16;-3.90;99.90
15707;DHT22;7953;54.302;10.128;2022-12-18T14:34:44;-3.90;99.90
15707;DHT22;7953;54.302;10.128;2022-12-18T14:37:12;-3.90;99.90
15707;DHT22;7953;54.302;10.128;2022-12-18T14:39:52;-3.90;99.90
15707;DHT22;7953;54.302;10.128;2022-12-18T14:42:19;-3.90;99.90
15707;DHT22;7953;54.302;10.128;2022-12-18T14:44:46;-4.00;99.90
15707;DHT22;7953;54.302;10.128;2022-12-18T14:47:14;-4.00;99.90
15707;DHT22;7953;54.302;10.128;2022-12-18T14:49:42;-4.00;99.90
15707;DHT22;7953;54.302;10.128;2022-12-18T14:52:19;-4.00;99.90
15707;DHT22;7953;54.302;10.128;2022-12-18T14:54:49;-4.10;99.90
15707;DHT22;7953;54.302;10.128;2022-12-18T14:57:21;-4.10;99.90
15707;DHT22;7953;54.302;10.128;2022-12-18T14:59:49;-4.10;99.90
15707;DHT22;7953;54.302;10.128;2022-12-18T15:02:21;-4.20;99.90
15707;DHT22;7953;54.302;10.128;2022-12-18T15:05:00;-4.20;99.90
15707;DHT22;7953;54.302;10.128;2022-12-18T15:07:27;-4.20;99.90
15707;DHT22;7953;54.302;10.128;2022-12-18T15:10:10;-4.20;99.90
15707;DHT22;7953;54.302;10.128;2022-12-18T15:12:40;-4.30;99.90
15707;DHT22;7953;54.302;10.128;2022-12-18T15:18:12;-4.30;99.90
15707;DHT22;7953;54.302;10.128;2022-12-18T15:20:43;-4.40;99.90
15707;DHT22;7953;54.302;10.128;2022-12-18T15:23:15;-4.40;99.90
15707;DHT22;7953;54.302;10.128;2022-12-18T15:25:44;-4.40;99.90
15707;DHT22;7953;54.302;10.128;2022-12-18T15:28:22;-4.40;99.90
15707;DHT22;7953;54.302;10.128;2022-12-18T15:31:01;-4.40;99.90
15707;DHT22;7953;54.302;10.128;2022-12-18T15:33:33;-4.40;99.90
15707;DHT22;7953;54.302;10.128;2022-12-18T15:36:01;-4.50;99.90
15707;DHT22;7953;54.302;10.128;2022-12-18T15:38:28;-4.50;99.90
15707;DHT22;7953;54.302;10.128;2022-12-18T15:40:57;-4.50;99.90
15707;DHT22;7953;54.302;10.128;2022-12-18T15:43:26;-4.50;99.90
15707;DHT22;7953;54.302;10.128;2022-12-18T15:46:06;-4.50;99.90
15707;DHT22;7953;54.302;10.128;2022-12-18T15:48:34;-4.50;99.90
15707;DHT22;7953;54.302;10.128;2022-12-18T15:51:02;-4.50;99.90
15707;DHT22;7953;54.302;10.128;2022-12-18T15:53:32;-4.60;99.90
15707;DHT22;7953;54.302;10.128;2022-12-18T15:56:01;-4.60;99.90